Time;durP1;ratioP1;P1;durP2;ratioP2;P2;SDS_P1;SDS_P2;PMS_P1;PMS_P2;Temp;Humidity;BMP_temperature;BMP_pressure;BME280_temperature;BME280_humidity;BME280_pressure;Samples;Min_cycle;Max_cycle;Signal;HPM_P1;HPM_P2
2023/07/22 00:00:05;;;;;;;1.83;1.10;;;22.20;64.10;;;;;;4983330;28;20077;-68
2023/07/22 00:02:31;;;;;;;1.52;1.10;;;22.20;65.20;;;;;;4982842;28;20039;-70
2023/07/22 00:04:57;;;;;;;1.20;1.10;;;22.20;64.60;;;;;;4983691;28;20133;-71
2023/07/22 00:07:23;;;;;;;1.75;1.30;;;22.10;64.60;;;;;;4983292;28;20085;-70
2023/07/22 00:09:50;;;;;;;1.80;1.05;;;22.10;64.70;;;;;;4981730;28;20133;-71
2023/07/22 00:12:16;;;;;;;1.27;1.13;;;22.10;64.40;;;;;;4984405;28;20034;-71
2023/07/22 00:14:42;;;;;;;1.50;1.20;;;22.10;64.50;;;;;;4984738;28;20038;-70
2023/07/22 00:17:08;;;;;;;2.05;1.10;;;22.10;64.90;;;;;;4982753;28;20088;-71
2023/07/22 00:19:34;;;;;;;4.22;1.30;;;22.00;64.70;;;;;;4983319;28;20031;-71
2023/07/22 00:22:00;;;;;;;5.32;1.40;;;22.00;64.50;;;;;;4983224;28;20505;-71
2023/07/22 00:24:26;;;;;;;1.30;1.10;;;21.90;64.60;;;;;;4985969;28;20031;-71
2023/07/22 00:26:52;;;;;;;1.58;1.02;;;21.90;64.80;;;;;;4982697;28;20061;-71
2023/07/22 00:29:18;;;;;;;2.35;1.30;;;21.90;64.60;;;;;;5013206;28;20124;-71
2023/07/22 00:31:44;;;;;;;1.63;1.00;;;21.90;64.50;;;;;;5013310;28;20082;-71
2023/07/22 00:34:10;;;;;;;4.43;1.52;;;21.90;64.80;;;;;;4981355;28;20045;-71
2023/07/22 00:36:37;;;;;;;1.35;1.10;;;21.90;64.80;;;;;;4981451;28;20939;-71
2023/07/22 00:39:05;;;;;;;3.05;1.08;;;21.90;64.90;;;;;;4981529;28;20039;-71
2023/07/22 00:41:31;;;;;;;1.63;1.00;;;21.90;64.70;;;;;;4982405;28;20072;-71
2023/07/22 00:43:57;;;;;;;1.33;1.02;;;21.80;64.70;;;;;;4980830;28;20042;-71
2023/07/22 00:46:23;;;;;;;3.03;1.30;;;21.90;64.60;;;;;;5015190;28;20100;-71
2023/07/22 00:48:50;;;;;;;1.60;0.93;;;21.90;64.60;;;;;;4983517;28;20035;-71
2023/07/22 00:51:17;;;;;;;1.83;0.93;;;21.80;64.40;;;;;;5013877;28;20030;-71
2023/07/22 00:53:43;;;;;;;1.15;0.80;;;21.80;64.90;;;;;;4982831;28;20031;-71
2023/07/22 00:56:09;;;;;;;4.20;1.15;;;21.80;64.70;;;;;;4979683;28;20026;-71
2023/07/22 00:58:35;;;;;;;4.43;1.13;;;21.80;65.10;;;;;;5012976;28;20084;-71
2023/07/22 01:01:01;;;;;;;2.17;0.90;;;21.90;64.90;;;;;;4997176;28;20039;-71
2023/07/22 01:03:28;;;;;;;3.10;1.20;;;21.80;64.60;;;;;;5012869;28;20600;-71
2023/07/22 01:05:54;;;;;;;1.30;0.98;;;21.80;64.80;;;;;;4980379;28;20046;-72
2023/07/22 01:08:21;;;;;;;0.95;0.88;;;21.80;64.90;;;;;;4981405;28;20034;-71
2023/07/22 01:10:48;;;;;;;2.05;1.27;;;21.80;64.60;;;;;;4983580;28;20049;-72
2023/07/22 01:13:14;;;;;;;2.03;1.10;;;21.80;64.30;;;;;;4987831;28;20042;-71
2023/07/22 01:15:41;;;;;;;1.45;1.02;;;21.80;64.10;;;;;;4998191;28;20038;-71
2023/07/22 01:18:07;;;;;;;1.33;0.70;;;21.80;64.10;;;;;;4982669;28;20050;-71
2023/07/22 01:20:34;;;;;;;2.17;1.00;;;21.80;64.30;;;;;;4981151;28;20038;-71
2023/07/22 01:23:01;;;;;;;2.40;0.98;;;21.70;64.10;;;;;;4984146;28;20062;-72
2023/07/22 01:25:27;;;;;;;2.05;0.90;;;21.80;64.30;;;;;;4980567;28;20072;-71
2023/07/22 01:27:53;;;;;;;2.65;1.10;;;21.70;64.30;;;;;;4981440;28;20489;-70
2023/07/22 01:30:19;;;;;;;1.80;0.73;;;21.70;64.40;;;;;;4998034;28;20038;-70
2023/07/22 01:32:47;;;;;;;4.22;1.08;;;21.70;64.50;;;;;;4981621;28;20097;-70
2023/07/22 01:35:13;;;;;;;1.42;0.85;;;21.70;64.70;;;;;;4979904;28;20049;-71
2023/07/22 01:37:39;;;;;;;1.48;0.88;;;21.70;64.70;;;;;;4980318;28;20041;-70
2023/07/22 01:40:11;;;;;;;1.83;0.90;;;21.70;64.70;;;;;;4981665;28;20035;-70
2023/07/22 01:42:42;;;;;;;2.17;0.90;;;21.70;64.80;;;;;;4979921;28;20031;-70
2023/07/22 01:45:09;;;;;;;1.83;0.80;;;21.70;64.80;;;;;;4978930;28;20026;-70
2023/07/22 01:47:36;;;;;;;2.30;0.80;;;21.70;64.80;;;;;;5013466;28;20700;-70
2023/07/22 01:50:06;;;;;;;1.25;0.82;;;21.70;64.90;;;;;;4988462;28;20046;-70
2023/07/22 01:52:32;;;;;;;1.90;1.00;;;21.70;64.90;;;;;;5006791;28;20043;-71
2023/07/22 01:54:58;;;;;;;1.23;0.98;;;21.70;65.00;;;;;;4981350;28;20130;-71
2023/07/22 01:57:24;;;;;;;1.60;1.10;;;21.70;64.90;;;;;;4982641;28;20617;-71
2023/07/22 01:59:50;;;;;;;1.00;0.80;;;21.70;64.90;;;;;;5015225;28;20546;-71
2023/07/22 02:02:16;;;;;;;1.50;0.82;;;21.70;64.90;;;;;;4984534;28;20108;-71
2023/07/22 02:04:42;;;;;;;3.72;1.15;;;21.70;65.00;;;;;;4981834;28;20046;-70
2023/07/22 02:07:08;;;;;;;0.95;0.82;;;21.70;64.90;;;;;;5001819;28;20493;-70
2023/07/22 02:09:35;;;;;;;1.67;0.90;;;21.60;64.70;;;;;;4981488;28;20084;-71
2023/07/22 02:12:01;;;;;;;1.05;0.90;;;21.70;65.00;;;;;;4979530;28;20036;-72
2023/07/22 02:14:27;;;;;;;1.75;0.88;;;21.70;65.00;;;;;;4980607;28;20039;-70
2023/07/22 02:16:53;;;;;;;0.98;0.70;;;21.70;65.80;;;;;;4980670;28;20648;-71
2023/07/22 02:19:19;;;;;;;2.10;0.70;;;21.70;65.20;;;;;;4983831;28;20081;-70
2023/07/22 02:21:45;;;;;;;2.08;0.93;;;21.70;65.10;;;;;;4983997;28;20341;-71
2023/07/22 02:24:11;;;;;;;3.55;0.80;;;21.70;65.20;;;;;;4994784;28;20030;-71
2023/07/22 02:26:37;;;;;;;2.35;0.95;;;21.60;65.00;;;;;;4996138;28;20058;-70
2023/07/22 02:29:03;;;;;;;2.13;0.70;;;21.70;65.30;;;;;;5031029;28;20042;-70
2023/07/22 02:31:29;;;;;;;1.92;0.82;;;21.80;65.00;;;;;;4999636;28;20037;-71
2023/07/22 02:33:55;;;;;;;2.85;0.80;;;21.80;65.00;;;;;;5001865;28;20034;-70
2023/07/22 02:36:21;;;;;;;1.45;0.70;;;21.80;65.00;;;;;;4998494;28;20092;-70
2023/07/22 02:38:47;;;;;;;4.18;0.95;;;21.90;65.10;;;;;;4999821;28;20030;-70
2023/07/22 02:41:12;;;;;;;0.82;0.50;;;22.00;65.10;;;;;;5000139;28;20057;-71
2023/07/22 02:43:40;;;;;;;1.98;1.00;;;22.10;65.10;;;;;;5015201;28;20128;-70
2023/07/22 02:46:07;;;;;;;2.90;1.00;;;22.10;65.10;;;;;;4998636;28;20039;-71
2023/07/22 02:48:34;;;;;;;2.00;0.70;;;22.20;64.80;;;;;;4998892;28;20417;-71
2023/07/22 02:51:04;;;;;;;1.38;0.75;;;22.30;64.90;;;;;;4999817;28;20382;-71
2023/07/22 02:53:32;;;;;;;1.13;0.80;;;22.40;64.70;;;;;;5000089;28;20069;-71
2023/07/22 02:55:59;;;;;;;2.70;0.85;;;22.50;64.50;;;;;;4998035;28;20409;-71
2023/07/22 02:58:25;;;;;;;1.75;0.98;;;22.50;64.50;;;;;;5015873;28;20066;-71
2023/07/22 03:00:51;;;;;;;2.80;0.63;;;22.60;64.20;;;;;;5015577;28;20480;-71
2023/07/22 03:03:18;;;;;;;1.17;0.68;;;22.70;64.20;;;;;;5015272;28;20124;-70
2023/07/22 03:05:45;;;;;;;2.13;0.90;;;22.80;64.00;;;;;;5001064;28;20631;-71
2023/07/22 03:08:11;;;;;;;1.27;0.60;;;22.80;63.80;;;;;;4999339;28;20500;-71
2023/07/22 03:10:37;;;;;;;1.95;0.85;;;22.80;63.40;;;;;;5013488;28;20080;-71
2023/07/22 03:13:03;;;;;;;1.95;0.80;;;22.80;63.60;;;;;;4999854;28;20572;-71
2023/07/22 03:15:29;;;;;;;0.80;0.70;;;22.80;63.50;;;;;;5014072;28;20037;-70
2023/07/22 03:17:56;;;;;;;1.90;1.08;;;22.70;63.20;;;;;;4999882;28;20042;-71
2023/07/22 03:20:24;;;;;;;1.50;0.75;;;22.80;63.30;;;;;;5002248;28;20535;-69
2023/07/22 03:22:50;;;;;;;1.27;0.73;;;22.80;63.30;;;;;;5015579;28;20473;-70
2023/07/22 03:25:16;;;;;;;1.05;0.75;;;22.70;62.90;;;;;;4997837;28;20030;-70
2023/07/22 03:27:44;;;;;;;1.52;0.98;;;22.80;63.00;;;;;;4999851;28;20460;-70
2023/07/22 03:30:15;;;;;;;1.70;0.80;;;22.70;63.00;;;;;;5002118;28;20030;-70
2023/07/22 03:32:43;;;;;;;2.80;0.90;;;22.70;62.90;;;;;;5004373;28;20404;-71
2023/07/22 03:35:10;;;;;;;0.95;0.60;;;22.70;63.00;;;;;;5003255;28;20136;-71
2023/07/22 03:37:37;;;;;;;0.98;0.88;;;22.70;63.20;;;;;;5001299;28;20042;-70
2023/07/22 03:40:19;;;;;;;0.80;0.80;;;22.70;63.30;;;;;;5002035;28;20151;-69
2023/07/22 03:42:50;;;;;;;1.85;0.70;;;22.70;62.90;;;;;;5003222;28;20034;-70
2023/07/22 03:45:20;;;;;;;2.08;0.73;;;22.80;63.20;;;;;;5018992;28;20036;-69
2023/07/22 03:47:49;;;;;;;2.38;0.90;;;22.90;63.20;;;;;;5016763;28;20026;-70
2023/07/22 03:50:15;;;;;;;1.15;0.70;;;23.00;63.20;;;;;;5004479;28;20117;-70
2023/07/22 03:52:41;;;;;;;2.03;1.05;;;23.10;62.90;;;;;;5004778;28;20139;-69
2023/07/22 03:55:07;;;;;;;3.67;0.80;;;23.30;62.70;;;;;;5004142;28;20065;-70
2023/07/22 03:57:34;;;;;;;3.85;0.93;;;23.40;62.70;;;;;;5001957;28;20037;-71
2023/07/22 04:00:00;;;;;;;2.65;1.00;;;23.50;62.60;;;;;;5036688;28;20580;-71
2023/07/22 04:02:26;;;;;;;1.52;0.90;;;23.60;62.40;;;;;;5002365;28;20645;-71
2023/07/22 04:04:54;;;;;;;1.35;1.00;;;23.70;62.20;;;;;;5001447;28;20108;-71
2023/07/22 04:07:21;;;;;;;0.95;0.60;;;23.80;62.10;;;;;;5003380;28;20042;-71
2023/07/22 04:09:48;;;;;;;1.23;0.70;;;23.90;61.80;;;;;;5017078;28;20041;-71
2023/07/22 04:12:14;;;;;;;2.03;0.82;;;24.00;61.00;;;;;;5016741;28;20038;-72
2023/07/22 04:14:40;;;;;;;1.65;0.90;;;24.10;61.20;;;;;;5002734;28;20447;-71
2023/07/22 04:17:06;;;;;;;1.35;0.80;;;24.20;60.70;;;;;;5001522;28;20042;-72
2023/07/22 04:19:32;;;;;;;1.20;0.65;;;24.30;60.60;;;;;;5001086;28;20121;-70
2023/07/22 04:22:00;;;;;;;0.95;0.75;;;24.40;60.20;;;;;;5017444;28;20301;-71
2023/07/22 04:24:26;;;;;;;0.70;0.70;;;24.60;59.90;;;;;;5002832;28;20038;-71
2023/07/22 04:26:52;;;;;;;1.08;0.98;;;24.60;59.50;;;;;;5001599;28;20050;-71
2023/07/22 04:29:19;;;;;;;1.60;0.60;;;24.70;59.50;;;;;;5003337;28;20497;-71
2023/07/22 04:31:45;;;;;;;1.85;0.65;;;24.80;59.60;;;;;;5002516;28;20470;-70
2023/07/22 04:34:12;;;;;;;1.60;0.80;;;24.90;59.10;;;;;;5001437;28;20099;-71
2023/07/22 04:36:38;;;;;;;1.65;0.60;;;25.00;59.10;;;;;;5001447;28;20600;-71
2023/07/22 04:39:08;;;;;;;0.93;0.75;;;25.10;58.90;;;;;;5002239;28;20480;-71
2023/07/22 04:41:33;;;;;;;0.95;0.55;;;25.20;58.80;;;;;;4999859;28;20041;-71
2023/07/22 04:43:59;;;;;;;0.70;0.65;;;25.20;58.80;;;;;;5002963;28;20150;-70
2023/07/22 04:46:26;;;;;;;1.58;0.85;;;25.30;58.40;;;;;;5002389;28;20073;-71
2023/07/22 04:48:57;;;;;;;1.67;0.65;;;25.30;58.40;;;;;;5000671;28;20091;-71
2023/07/22 04:51:23;;;;;;;2.08;0.75;;;25.40;58.20;;;;;;5001115;28;20045;-70
2023/07/22 04:53:49;;;;;;;1.33;0.80;;;25.50;57.90;;;;;;5001590;28;20038;-70
2023/07/22 04:56:16;;;;;;;1.67;0.60;;;25.50;57.90;;;;;;5001018;28;20537;-71
2023/07/22 04:58:42;;;;;;;1.10;0.77;;;25.60;57.80;;;;;;5001149;28;20030;-71
2023/07/22 05:01:09;;;;;;;0.77;0.60;;;25.60;57.60;;;;;;5001929;28;20034;-71
2023/07/22 05:03:35;;;;;;;1.42;0.77;;;25.70;57.40;;;;;;5001508;28;20608;-71
2023/07/22 05:06:01;;;;;;;1.20;0.70;;;25.80;57.50;;;;;;5002529;28;20125;-71
2023/07/22 05:08:27;;;;;;;0.60;0.60;;;25.80;57.60;;;;;;5035386;28;20490;-71
2023/07/22 05:10:53;;;;;;;0.75;0.57;;;25.80;57.50;;;;;;5002225;28;20049;-72
2023/07/22 05:13:19;;;;;;;0.90;0.80;;;25.90;57.30;;;;;;5003447;28;20034;-72
2023/07/22 05:15:45;;;;;;;0.95;0.60;;;25.90;57.10;;;;;;5002888;28;20038;-72
2023/07/22 05:18:11;;;;;;;1.67;0.60;;;26.00;57.20;;;;;;5000207;28;20030;-72
2023/07/22 05:20:39;;;;;;;0.75;0.50;;;26.00;57.10;;;;;;5005044;28;20026;-71
2023/07/22 05:23:05;;;;;;;0.73;0.60;;;26.10;57.00;;;;;;5002102;28;20088;-72
2023/07/22 05:25:31;;;;;;;0.43;0.43;;;26.10;57.00;;;;;;5000420;28;20037;-71
2023/07/22 05:27:57;;;;;;;1.98;0.65;;;26.20;56.80;;;;;;5001333;28;20041;-71
2023/07/22 05:30:22;;;;;;;1.85;0.50;;;26.20;56.80;;;;;;5015514;28;20037;-71
2023/07/22 05:32:53;;;;;;;1.05;0.60;;;26.30;56.80;;;;;;5000630;28;20409;-72
2023/07/22 05:35:19;;;;;;;1.85;0.60;;;26.30;56.90;;;;;;5003810;28;20069;-71
2023/07/22 05:37:45;;;;;;;1.63;0.60;;;26.40;56.10;;;;;;5002094;28;20050;-71
2023/07/22 05:40:11;;;;;;;0.95;0.60;;;26.40;56.30;;;;;;5002467;28;20046;-73
2023/07/22 05:42:37;;;;;;;1.63;0.85;;;26.40;56.10;;;;;;4999796;28;20092;-71
2023/07/22 05:45:03;;;;;;;1.08;0.60;;;26.50;56.00;;;;;;5000565;28;20488;-70
2023/07/22 05:47:30;;;;;;;1.65;0.75;;;26.60;55.70;;;;;;5001159;28;20037;-70
2023/07/22 05:49:56;;;;;;;2.03;0.95;;;26.60;55.10;;;;;;5002302;28;20046;-71
2023/07/22 05:52:23;;;;;;;0.43;0.43;;;26.60;55.10;;;;;;5000990;28;20037;-71
2023/07/22 05:54:49;;;;;;;1.92;0.70;;;26.70;55.60;;;;;;4998993;28;20036;-71
2023/07/22 05:57:15;;;;;;;1.77;0.57;;;26.70;54.90;;;;;;5002326;28;20033;-70
2023/07/22 05:59:41;;;;;;;1.55;0.57;;;26.70;55.30;;;;;;5000944;28;20025;-71
2023/07/22 06:02:08;;;;;;;1.20;0.50;;;26.80;55.20;;;;;;5000154;28;20046;-70
2023/07/22 06:04:34;;;;;;;1.10;0.60;;;26.90;55.30;;;;;;5000585;28;20191;-71
2023/07/22 06:07:00;;;;;;;2.55;0.70;;;26.90;54.60;;;;;;4998970;28;20121;-71
2023/07/22 06:09:26;;;;;;;2.03;0.40;;;26.90;54.90;;;;;;4999070;28;20038;-71
2023/07/22 06:11:52;;;;;;;1.08;0.40;;;27.00;54.80;;;;;;5001056;28;20085;-73
2023/07/22 06:14:18;;;;;;;0.85;0.50;;;27.00;54.80;;;;;;5001795;28;20030;-72
2023/07/22 06:16:44;;;;;;;0.93;0.40;;;27.00;54.80;;;;;;4999901;28;20080;-72
2023/07/22 06:19:10;;;;;;;1.77;0.65;;;27.10;54.60;;;;;;5001315;28;20030;-72
2023/07/22 06:21:36;;;;;;;0.68;0.60;;;27.10;54.40;;;;;;5002642;28;20042;-72
2023/07/22 06:24:01;;;;;;;1.42;0.40;;;27.10;54.60;;;;;;5001424;28;20058;-73
2023/07/22 06:26:27;;;;;;;2.15;0.80;;;27.10;54.70;;;;;;5000492;28;20048;-71
2023/07/22 06:28:53;;;;;;;0.60;0.40;;;27.20;54.60;;;;;;5001193;28;20107;-71
2023/07/22 06:31:21;;;;;;;0.40;0.40;;;27.20;54.40;;;;;;5001853;28;20160;-72
2023/07/22 06:33:47;;;;;;;0.47;0.47;;;27.20;54.20;;;;;;4997920;28;20041;-71
2023/07/22 06:36:13;;;;;;;0.60;0.60;;;27.20;53.90;;;;;;5000929;28;20029;-71
2023/07/22 06:38:39;;;;;;;0.68;0.30;;;27.20;53.80;;;;;;5000827;28;20018;-71
2023/07/22 06:41:05;;;;;;;1.58;0.50;;;27.20;53.80;;;;;;4999924;28;20084;-70
2023/07/22 06:43:31;;;;;;;1.75;0.50;;;27.20;53.70;;;;;;4997961;28;20038;-71
2023/07/22 06:45:57;;;;;;;0.73;0.60;;;27.20;53.50;;;;;;4998230;28;20030;-71
2023/07/22 06:48:23;;;;;;;0.68;0.60;;;27.20;53.70;;;;;;4999411;28;20056;-71
2023/07/22 06:50:49;;;;;;;1.40;0.45;;;27.30;53.80;;;;;;5000003;28;20066;-71
2023/07/22 06:53:15;;;;;;;0.45;0.35;;;27.30;53.70;;;;;;4999715;28;20432;-71
2023/07/22 06:55:52;;;;;;;1.02;0.60;;;27.40;53.90;;;;;;4999267;28;20501;-71
2023/07/22 06:58:24;;;;;;;0.55;0.50;;;27.40;53.70;;;;;;4998928;28;20846;-71
2023/07/22 07:00:55;;;;;;;0.65;0.65;;;27.40;53.40;;;;;;5001404;28;20030;-72
2023/07/22 07:03:22;;;;;;;2.42;0.73;;;27.40;53.50;;;;;;5000087;28;20044;-72
2023/07/22 07:05:57;;;;;;;1.05;0.70;;;27.40;53.10;;;;;;5000062;28;20045;-72
2023/07/22 07:08:23;;;;;;;1.23;0.50;;;27.40;53.10;;;;;;5000346;28;20424;-71
2023/07/22 07:10:50;;;;;;;0.52;0.50;;;27.30;53.20;;;;;;4997812;28;20045;-72
2023/07/22 07:13:17;;;;;;;1.90;0.57;;;27.40;53.30;;;;;;4999136;28;20628;-72
2023/07/22 07:15:48;;;;;;;1.05;0.70;;;27.40;52.70;;;;;;5000338;28;20037;-72
2023/07/22 07:18:14;;;;;;;1.70;0.75;;;27.30;53.10;;;;;;4997862;28;20116;-72
2023/07/22 07:20:40;;;;;;;1.15;0.50;;;27.30;52.90;;;;;;4999112;28;20045;-72
2023/07/22 07:23:06;;;;;;;1.27;0.63;;;27.30;53.20;;;;;;5000011;28;20089;-72
2023/07/22 07:25:32;;;;;;;0.95;0.50;;;27.30;53.10;;;;;;4997852;28;20034;-72
2023/07/22 07:27:57;;;;;;;3.25;0.70;;;27.30;53.00;;;;;;4999669;28;20517;-71
2023/07/22 07:30:23;;;;;;;2.85;0.50;;;27.30;52.90;;;;;;4999105;28;23122;-72
2023/07/22 07:32:50;;;;;;;1.95;0.60;;;27.30;53.10;;;;;;4999058;28;20080;-72
2023/07/22 07:35:16;;;;;;;1.25;0.60;;;27.40;53.30;;;;;;4999554;28;20037;-72
2023/07/22 07:37:42;;;;;;;1.27;0.50;;;27.40;53.10;;;;;;4998947;28;20459;-72
2023/07/22 07:40:08;;;;;;;0.70;0.50;;;27.30;53.20;;;;;;5000287;28;20142;-72
2023/07/22 07:42:34;;;;;;;1.02;0.80;;;27.40;53.40;;;;;;5031203;28;20045;-72
2023/07/22 07:45:00;;;;;;;2.05;0.93;;;27.40;53.20;;;;;;5000659;28;20033;-72
2023/07/22 07:47:26;;;;;;;1.25;0.60;;;27.40;52.90;;;;;;5002739;28;20029;-72
2023/07/22 07:49:52;;;;;;;1.98;0.70;;;27.30;53.10;;;;;;4999377;28;20144;-72
2023/07/22 07:52:18;;;;;;;0.95;0.70;;;27.30;53.00;;;;;;4998557;28;20057;-71
2023/07/22 07:54:44;;;;;;;1.55;0.60;;;27.30;53.30;;;;;;4999906;28;20072;-71
2023/07/22 07:57:09;;;;;;;0.50;0.32;;;27.30;53.10;;;;;;4997687;28;20029;-72
2023/07/22 07:59:35;;;;;;;0.98;0.70;;;27.30;53.20;;;;;;5001707;28;20135;-72
2023/07/22 08:02:02;;;;;;;1.73;0.43;;;27.30;53.00;;;;;;4998977;28;20129;-72
2023/07/22 08:04:28;;;;;;;1.85;0.70;;;27.30;53.10;;;;;;4998109;28;20417;-72
2023/07/22 08:06:54;;;;;;;1.45;0.55;;;27.20;53.10;;;;;;4999041;28;20117;-72
2023/07/22 08:09:21;;;;;;;0.90;0.60;;;27.10;53.00;;;;;;4999356;28;20042;-72
2023/07/22 08:11:47;;;;;;;3.03;0.77;;;27.10;52.90;;;;;;5002101;28;20030;-72
2023/07/22 08:14:13;;;;;;;1.33;0.70;;;27.10;53.40;;;;;;4997598;28;20084;-72
2023/07/22 08:16:39;;;;;;;1.17;0.88;;;27.10;52.40;;;;;;4988504;28;20036;-72
2023/07/22 08:19:05;;;;;;;1.00;0.90;;;27.00;51.90;;;;;;4984716;28;20030;-72
2023/07/22 08:21:31;;;;;;;0.82;0.52;;;27.00;52.30;;;;;;4999558;28;20416;-72
2023/07/22 08:23:57;;;;;;;0.50;0.50;;;27.00;53.00;;;;;;4982566;28;20038;-71
2023/07/22 08:26:23;;;;;;;0.77;0.50;;;27.00;53.80;;;;;;4982143;28;20052;-72
2023/07/22 08:28:49;;;;;;;0.60;0.60;;;27.00;53.40;;;;;;4981762;28;20121;-72
2023/07/22 08:31:15;;;;;;;1.15;0.60;;;27.00;52.60;;;;;;4983444;28;20030;-72
2023/07/22 08:33:41;;;;;;;1.70;0.52;;;27.00;53.10;;;;;;4979385;28;20547;-72
2023/07/22 08:36:08;;;;;;;3.30;0.70;;;27.00;52.40;;;;;;4983485;28;20125;-71
2023/07/22 08:38:34;;;;;;;0.80;0.50;;;27.00;53.30;;;;;;4985327;28;20445;-72
2023/07/22 08:41:00;;;;;;;1.15;0.70;;;27.00;53.80;;;;;;4982567;28;20328;-72
2023/07/22 08:43:28;;;;;;;0.55;0.47;;;26.90;51.70;;;;;;4981756;28;20027;-72
2023/07/22 08:45:54;;;;;;;0.75;0.45;;;26.90;52.40;;;;;;4982761;28;20042;-72
2023/07/22 08:48:26;;;;;;;1.50;0.50;;;26.90;53.20;;;;;;4982204;28;20125;-72
2023/07/22 08:51:18;;;;;;;1.27;0.90;;;26.90;53.40;;;;;;4981465;28;20044;-72
2023/07/22 08:53:48;;;;;;;1.73;1.00;;;26.90;52.30;;;;;;5001738;28;20464;-72
2023/07/22 08:56:14;;;;;;;0.82;0.70;;;26.80;52.80;;;;;;4983903;28;20031;-72
2023/07/22 08:58:42;;;;;;;0.95;0.80;;;26.80;51.90;;;;;;4982792;28;20632;-72
2023/07/22 09:01:08;;;;;;;0.98;0.90;;;26.80;53.50;;;;;;4983885;28;20046;-72
2023/07/22 09:03:35;;;;;;;1.38;0.98;;;26.70;52.60;;;;;;4981045;28;20505;-72
2023/07/22 09:06:01;;;;;;;0.77;0.70;;;26.70;52.40;;;;;;4984154;28;20026;-72
2023/07/22 09:08:27;;;;;;;1.05;0.70;;;26.70;53.40;;;;;;5011772;28;20030;-72
2023/07/22 09:10:53;;;;;;;0.90;0.75;;;26.70;52.80;;;;;;4980946;28;20092;-72
2023/07/22 09:13:21;;;;;;;2.70;0.70;;;26.70;52.80;;;;;;4980298;28;20042;-72
2023/07/22 09:15:50;;;;;;;1.42;0.75;;;26.70;53.10;;;;;;4980692;28;20605;-72
2023/07/22 09:18:16;;;;;;;2.17;0.60;;;26.70;53.20;;;;;;4983892;28;20038;-72
2023/07/22 09:20:42;;;;;;;1.83;0.60;;;26.70;52.60;;;;;;4984389;28;20041;-72
2023/07/22 09:23:08;;;;;;;3.00;0.90;;;26.70;52.80;;;;;;4981443;28;20043;-72
2023/07/22 09:25:34;;;;;;;1.00;0.70;;;26.70;53.00;;;;;;4982014;28;20545;-71
2023/07/22 09:28:00;;;;;;;1.98;0.90;;;26.70;52.70;;;;;;4978771;28;20165;-72
2023/07/22 09:30:38;;;;;;;2.03;0.93;;;26.60;52.20;;;;;;4983430;28;20069;-72
2023/07/22 09:33:06;;;;;;;1.13;0.80;;;26.50;52.00;;;;;;4981392;28;20042;-71
2023/07/22 09:35:44;;;;;;;1.08;0.70;;;26.60;52.50;;;;;;4982283;28;20034;-72
2023/07/22 09:38:11;;;;;;;2.88;0.80;;;26.60;52.20;;;;;;4981688;28;20616;-72
2023/07/22 09:40:40;;;;;;;1.60;0.70;;;26.60;52.50;;;;;;4982232;28;20189;-71
2023/07/22 09:43:10;;;;;;;1.15;0.65;;;26.60;51.80;;;;;;4980078;28;20047;-72
2023/07/22 09:45:39;;;;;;;1.60;0.50;;;26.60;51.80;;;;;;4983608;28;20061;-71
2023/07/22 09:48:05;;;;;;;0.88;0.68;;;26.50;51.50;;;;;;4980251;28;20112;-71
2023/07/22 09:50:31;;;;;;;1.52;0.60;;;26.50;51.60;;;;;;4982007;28;20409;-72
2023/07/22 09:52:59;;;;;;;2.72;0.60;;;26.50;51.30;;;;;;4980174;28;20030;-72
2023/07/22 09:55:30;;;;;;;2.15;0.82;;;26.50;51.10;;;;;;4981050;28;20058;-72
2023/07/22 09:57:57;;;;;;;1.65;0.77;;;26.50;51.10;;;;;;4980438;28;20133;-72
2023/07/22 10:00:47;;;;;;;1.05;0.70;;;26.50;51.40;;;;;;4982560;28;20038;-72
2023/07/22 10:03:15;;;;;;;0.68;0.50;;;26.50;50.80;;;;;;4981074;28;20037;-72
2023/07/22 10:05:43;;;;;;;1.10;0.63;;;26.40;51.10;;;;;;4980807;28;20767;-72
2023/07/22 10:08:12;;;;;;;1.13;0.47;;;26.40;50.10;;;;;;4980968;28;20560;-72
2023/07/22 10:10:38;;;;;;;2.33;0.52;;;26.40;50.10;;;;;;4978028;28;20049;-71
2023/07/22 10:13:05;;;;;;;2.92;0.50;;;26.40;49.90;;;;;;4980127;28;20158;-71
2023/07/22 10:15:34;;;;;;;1.88;0.40;;;26.40;50.10;;;;;;4980251;28;20598;-72
2023/07/22 10:18:00;;;;;;;0.73;0.52;;;26.40;50.50;;;;;;5012151;28;20457;-72
2023/07/22 10:20:29;;;;;;;1.58;0.70;;;26.40;50.50;;;;;;4980601;28;20027;-72
2023/07/22 10:22:55;;;;;;;1.08;0.60;;;26.30;50.30;;;;;;4979182;28;20552;-72
2023/07/22 10:25:22;;;;;;;1.33;0.75;;;26.40;50.80;;;;;;4982214;28;20081;-72
2023/07/22 10:27:50;;;;;;;0.50;0.40;;;26.40;51.70;;;;;;4979958;28;20043;-72
2023/07/22 10:30:17;;;;;;;1.42;0.60;;;26.40;51.60;;;;;;4979187;28;20092;-72
2023/07/22 10:32:46;;;;;;;1.25;0.70;;;26.30;51.40;;;;;;4980015;28;20519;-72
2023/07/22 10:35:33;;;;;;;1.27;0.55;;;26.30;51.30;;;;;;4979946;28;20041;-72
2023/07/22 10:38:12;;;;;;;1.20;0.57;;;26.30;51.00;;;;;;4979144;28;20090;-70
2023/07/22 10:40:55;;;;;;;2.08;0.70;;;26.20;50.90;;;;;;4981675;28;20092;-72
2023/07/22 10:43:30;;;;;;;2.10;0.82;;;26.20;50.70;;;;;;4978649;28;20061;-71
2023/07/22 10:46:04;;;;;;;2.45;0.50;;;26.20;50.80;;;;;;4980259;28;20061;-72
2023/07/22 10:48:37;;;;;;;1.48;0.50;;;26.20;50.90;;;;;;4984969;28;20121;-71
2023/07/22 10:51:15;;;;;;;2.15;0.70;;;26.20;50.70;;;;;;4984196;28;20603;-71
2023/07/22 10:53:44;;;;;;;2.38;0.70;;;26.10;50.40;;;;;;5001667;28;20042;-71
2023/07/22 10:56:13;;;;;;;2.13;0.80;;;26.10;50.40;;;;;;4982284;28;20137;-71
2023/07/22 10:58:45;;;;;;;0.98;0.70;;;26.10;50.80;;;;;;4981851;28;20522;-71
2023/07/22 11:01:33;;;;;;;1.77;0.73;;;26.10;51.00;;;;;;4986295;28;20030;-71
2023/07/22 11:04:17;;;;;;;1.88;0.57;;;26.10;50.80;;;;;;4981086;28;20541;-71
2023/07/22 11:06:43;;;;;;;0.82;0.60;;;26.10;50.90;;;;;;4981171;28;20038;-71
2023/07/22 11:09:31;;;;;;;0.52;0.40;;;26.10;51.10;;;;;;4979772;28;20030;-71
2023/07/22 11:12:00;;;;;;;1.00;0.60;;;26.10;50.70;;;;;;4983417;28;20418;-71
2023/07/22 11:14:31;;;;;;;1.55;0.73;;;26.00;50.80;;;;;;4978973;28;20034;-71
2023/07/22 11:17:00;;;;;;;1.05;0.60;;;26.00;51.20;;;;;;4996116;28;20057;-71
2023/07/22 11:19:26;;;;;;;2.95;0.80;;;26.00;50.90;;;;;;4981102;28;20090;-71
2023/07/22 11:21:54;;;;;;;1.33;0.60;;;26.00;51.10;;;;;;4978826;28;20076;-71
2023/07/22 11:24:22;;;;;;;0.88;0.50;;;26.00;51.40;;;;;;4981145;28;20129;-70
2023/07/22 11:26:50;;;;;;;1.85;0.52;;;26.00;51.70;;;;;;4983770;28;20615;-71
2023/07/22 11:29:17;;;;;;;0.82;0.80;;;26.10;52.40;;;;;;4980284;28;20034;-71
2023/07/22 11:31:45;;;;;;;1.00;0.60;;;26.00;51.70;;;;;;4981733;28;20039;-70
2023/07/22 11:34:22;;;;;;;0.73;0.55;;;26.10;52.30;;;;;;4978460;28;20031;-71
2023/07/22 11:36:50;;;;;;;0.55;0.47;;;26.00;51.70;;;;;;4980089;28;20034;-71
2023/07/22 11:39:18;;;;;;;1.25;0.50;;;26.10;51.80;;;;;;4979585;28;20093;-71
2023/07/22 11:41:45;;;;;;;1.25;0.68;;;26.00;52.00;;;;;;4979759;28;20444;-71
2023/07/22 11:44:13;;;;;;;1.48;0.50;;;26.00;51.50;;;;;;4978847;28;20120;-71
2023/07/22 11:46:57;;;;;;;0.43;0.38;;;26.00;51.90;;;;;;4980031;28;20129;-71
2023/07/22 11:49:25;;;;;;;1.58;0.73;;;26.00;51.60;;;;;;4983133;28;20042;-72
2023/07/22 11:51:58;;;;;;;1.67;0.60;;;26.00;51.60;;;;;;4988022;28;20034;-72
2023/07/22 11:54:24;;;;;;;2.08;0.60;;;26.00;51.70;;;;;;4984186;28;20031;-71
2023/07/22 11:56:50;;;;;;;1.60;0.60;;;26.00;50.70;;;;;;4986048;28;20080;-71
2023/07/22 11:59:16;;;;;;;1.40;0.70;;;25.90;50.70;;;;;;4983184;28;20129;-71
2023/07/22 12:01:46;;;;;;;0.90;0.70;;;25.90;50.70;;;;;;4983442;28;20066;-71
2023/07/22 12:04:15;;;;;;;3.95;0.60;;;25.90;50.40;;;;;;4981875;28;20270;-71
2023/07/22 12:06:41;;;;;;;1.80;0.73;;;25.80;50.30;;;;;;4985056;28;20124;-71
2023/07/22 12:09:10;;;;;;;0.82;0.50;;;25.80;50.70;;;;;;4985207;28;20086;-71
2023/07/22 12:11:36;;;;;;;1.00;0.63;;;25.80;50.50;;;;;;4986515;28;20030;-71
2023/07/22 12:14:07;;;;;;;1.13;0.57;;;25.80;50.80;;;;;;4981187;28;20938;-71
2023/07/22 12:16:36;;;;;;;2.00;0.60;;;25.80;50.70;;;;;;4986448;28;20038;-72
2023/07/22 12:19:03;;;;;;;1.77;0.60;;;25.80;50.70;;;;;;4985456;28;20038;-70
2023/07/22 12:21:29;;;;;;;0.57;0.47;;;25.80;50.60;;;;;;4983349;28;20069;-71
2023/07/22 12:23:55;;;;;;;1.02;0.70;;;25.80;50.40;;;;;;4982790;28;20063;-71
2023/07/22 12:26:21;;;;;;;1.88;0.57;;;25.70;49.80;;;;;;5014391;28;20055;-71
2023/07/22 12:28:47;;;;;;;2.90;0.90;;;25.80;49.60;;;;;;4983674;28;20031;-71
2023/07/22 12:31:13;;;;;;;2.67;0.70;;;25.70;49.60;;;;;;4982398;28;20074;-71
2023/07/22 12:33:39;;;;;;;1.25;0.80;;;25.70;49.50;;;;;;4982141;28;20429;-71
2023/07/22 12:36:05;;;;;;;2.15;0.60;;;25.70;49.70;;;;;;4983442;28;20035;-71
2023/07/22 12:38:31;;;;;;;0.77;0.50;;;25.70;50.20;;;;;;4983591;28;20117;-71
2023/07/22 12:40:57;;;;;;;0.40;0.38;;;25.70;50.50;;;;;;4980893;28;20101;-70
2023/07/22 12:43:23;;;;;;;0.85;0.50;;;25.70;50.00;;;;;;4985914;28;20047;-71
2023/07/22 12:45:50;;;;;;;1.30;0.55;;;25.80;50.40;;;;;;4983752;28;20042;-71
2023/07/22 12:48:17;;;;;;;1.13;0.60;;;25.80;51.20;;;;;;4981725;28;20037;-70